Aviation Digital Data Service (ADDS)

Output produced by METARs form (1902 UTC 16 October 2021)
found at http://www.aviationweather.gov/metar/data/
 
METAR text: ROMD 161800Z AUTO 36005KT 9999 BKN020 26/23 Q1012
Conditions at: ROMD (MINAMIDAITOJIMA , JP) observed 1800 UTC 16 October 2021
Temperature: 26.0°C (79°F)
Dewpoint: 23.0°C (73°F) [RH = 84%]
Pressure (altimeter): 29.88 inches Hg (1012.0 mb)
Winds: from the N (360 degrees) at 6 MPH (5 knots; 2.6 m/s)
Visibility: 6 or more miles (10+ km)
Ceiling: 2000 feet AGL
Clouds: broken clouds at 2000 feet AGL
Weather: no significant weather observed at this time

METAR text: ROMD 161700Z AUTO 35006KT 9999 FEW029 26/22 Q1013
Conditions at: ROMD (MINAMIDAITOJIMA , JP) observed 1700 UTC 16 October 2021
Temperature: 26.0°C (79°F)
Dewpoint: 22.0°C (72°F) [RH = 79%]
Pressure (altimeter): 29.91 inches Hg (1013.0 mb)
Winds: from the N (350 degrees) at 7 MPH (6 knots; 3.1 m/s)
Visibility: 6 or more miles (10+ km)
Ceiling: at least 12,000 feet AGL
Clouds: few clouds at 2900 feet AGL
Weather: no significant weather observed at this time

METAR text: ROMD 161600Z AUTO 35005KT 9999 FEW024 26/22 Q1013
Conditions at: ROMD (MINAMIDAITOJIMA , JP) observed 1600 UTC 16 October 2021
Temperature: 26.0°C (79°F)
Dewpoint: 22.0°C (72°F) [RH = 79%]
Pressure (altimeter): 29.91 inches Hg (1013.0 mb)
Winds: from the N (350 degrees) at 6 MPH (5 knots; 2.6 m/s)
Visibility: 6 or more miles (10+ km)
Ceiling: at least 12,000 feet AGL
Clouds: few clouds at 2400 feet AGL
Weather: no significant weather observed at this time

METAR text: ROMD 161500Z AUTO 34005KT 9999 SCT025 SCT033 25/22 Q1013
Conditions at: ROMD (MINAMIDAITOJIMA , JP) observed 1500 UTC 16 October 2021
Temperature: 25.0°C (77°F)
Dewpoint: 22.0°C (72°F) [RH = 83%]
Pressure (altimeter): 29.91 inches Hg (1013.0 mb)
Winds: from the NNW (340 degrees) at 6 MPH (5 knots; 2.6 m/s)
Visibility: 6 or more miles (10+ km)
Ceiling: at least 12,000 feet AGL
Clouds: scattered clouds at 2500 feet AGL
scattered clouds at 3300 feet AGL
Weather: no significant weather observed at this time

METAR text: ROMD 161400Z AUTO 35003KT 9999 NCD 25/21 Q1014
Conditions at: ROMD (MINAMIDAITOJIMA , JP) observed 1400 UTC 16 October 2021
Temperature: 25.0°C (77°F)
Dewpoint: 21.0°C (70°F) [RH = 79%]
Pressure (altimeter): 29.94 inches Hg (1014.0 mb)
Winds: from the N (350 degrees) at 3 MPH (3 knots; 1.5 m/s)
Visibility: 6 or more miles (10+ km)
Ceiling: at least 12,000 feet AGL
Clouds: sky clear below 12,000 feet AGL
Weather: no significant weather observed at this time

METAR text: ROMD 161300Z AUTO 35004KT 9999 NCD 25/20 Q1014
Conditions at: ROMD (MINAMIDAITOJIMA , JP) observed 1300 UTC 16 October 2021
Temperature: 25.0°C (77°F)
Dewpoint: 20.0°C (68°F) [RH = 74%]
Pressure (altimeter): 29.94 inches Hg (1014.0 mb)
Winds: from the N (350 degrees) at 5 MPH (4 knots; 2.1 m/s)
Visibility: 6 or more miles (10+ km)
Ceiling: at least 12,000 feet AGL
Clouds: sky clear below 12,000 feet AGL
Weather: no significant weather observed at this time

METAR text: ROMD 161200Z AUTO 36005KT 9999 NCD 25/20 Q1014
Conditions at: ROMD (MINAMIDAITOJIMA , JP) observed 1200 UTC 16 October 2021
Temperature: 25.0°C (77°F)
Dewpoint: 20.0°C (68°F) [RH = 74%]
Pressure (altimeter): 29.94 inches Hg (1014.0 mb)
Winds: from the N (360 degrees) at 6 MPH (5 knots; 2.6 m/s)
Visibility: 6 or more miles (10+ km)
Ceiling: at least 12,000 feet AGL
Clouds: sky clear below 12,000 feet AGL
Weather: no significant weather observed at this time

METAR text: ROMD 161100Z AUTO 36006KT 9999 NCD 25/20 Q1014
Conditions at: ROMD (MINAMIDAITOJIMA , JP) observed 1100 UTC 16 October 2021
Temperature: 25.0°C (77°F)
Dewpoint: 20.0°C (68°F) [RH = 74%]
Pressure (altimeter): 29.94 inches Hg (1014.0 mb)
Winds: from the N (360 degrees) at 7 MPH (6 knots; 3.1 m/s)
Visibility: 6 or more miles (10+ km)
Ceiling: at least 12,000 feet AGL
Clouds: sky clear below 12,000 feet AGL
Weather: no significant weather observed at this time

METAR text: ROMD 161000Z AUTO 35004KT 9999 NCD 26/20 Q1013
Conditions at: ROMD (MINAMIDAITOJIMA , JP) observed 1000 UTC 16 October 2021
Temperature: 26.0°C (79°F)
Dewpoint: 20.0°C (68°F) [RH = 70%]
Pressure (altimeter): 29.91 inches Hg (1013.0 mb)
Winds: from the N (350 degrees) at 5 MPH (4 knots; 2.1 m/s)
Visibility: 6 or more miles (10+ km)
Ceiling: at least 12,000 feet AGL
Clouds: sky clear below 12,000 feet AGL
Weather: no significant weather observed at this time

METAR text: ROMD 160900Z AUTO 35004KT 9999 FEW028 26/21 Q1012
Conditions at: ROMD (MINAMIDAITOJIMA , JP) observed 0900 UTC 16 October 2021
Temperature: 26.0°C (79°F)
Dewpoint: 21.0°C (70°F) [RH = 74%]
Pressure (altimeter): 29.88 inches Hg (1012.0 mb)
Winds: from the N (350 degrees) at 5 MPH (4 knots; 2.1 m/s)
Visibility: 6 or more miles (10+ km)
Ceiling: at least 12,000 feet AGL
Clouds: few clouds at 2800 feet AGL
Weather: no significant weather observed at this time

METAR text: ROMD 160800Z AUTO 36006KT 310V040 9999 NCD 27/21 Q1012
Conditions at: ROMD (MINAMIDAITOJIMA , JP) observed 0800 UTC 16 October 2021
Temperature: 27.0°C (81°F)
Dewpoint: 21.0°C (70°F) [RH = 70%]
Pressure (altimeter): 29.88 inches Hg (1012.0 mb)
Winds: from the N (360 degrees) at 7 MPH (6 knots; 3.1 m/s)
Visibility: 6 or more miles (10+ km)
Ceiling: at least 12,000 feet AGL
Clouds: sky clear below 12,000 feet AGL
Weather: no significant weather observed at this time

METAR text: ROMD 160700Z AUTO 36006KT 310V040 9999 NCD 28/20 Q1012
Conditions at: ROMD (MINAMIDAITOJIMA , JP) observed 0700 UTC 16 October 2021
Temperature: 28.0°C (82°F)
Dewpoint: 20.0°C (68°F) [RH = 62%]
Pressure (altimeter): 29.88 inches Hg (1012.0 mb)
Winds: from the N (360 degrees) at 7 MPH (6 knots; 3.1 m/s)
Visibility: 6 or more miles (10+ km)
Ceiling: at least 12,000 feet AGL
Clouds: sky clear below 12,000 feet AGL
Weather: no significant weather observed at this time

METAR text: ROMD 160600Z AUTO 01007KT 340V050 9999 FEW031 28/21 Q1012
Conditions at: ROMD (MINAMIDAITOJIMA , JP) observed 0600 UTC 16 October 2021
Temperature: 28.0°C (82°F)
Dewpoint: 21.0°C (70°F) [RH = 66%]
Pressure (altimeter): 29.88 inches Hg (1012.0 mb)
Winds: from the N (10 degrees) at 8 MPH (7 knots; 3.6 m/s)
Visibility: 6 or more miles (10+ km)
Ceiling: at least 12,000 feet AGL
Clouds: few clouds at 3100 feet AGL
Weather: no significant weather observed at this time

METAR text: ROMD 160500Z AUTO 03006KT 330V100 9999 NCD 27/21 Q1012
Conditions at: ROMD (MINAMIDAITOJIMA , JP) observed 0500 UTC 16 October 2021
Temperature: 27.0°C (81°F)
Dewpoint: 21.0°C (70°F) [RH = 70%]
Pressure (altimeter): 29.88 inches Hg (1012.0 mb)
Winds: from the NNE (30 degrees) at 7 MPH (6 knots; 3.1 m/s)
Visibility: 6 or more miles (10+ km)
Ceiling: at least 12,000 feet AGL
Clouds: sky clear below 12,000 feet AGL
Weather: no significant weather observed at this time

METAR text: ROMD 160400Z AUTO 07006KT 020V110 9999 NCD 28/21 Q1012
Conditions at: ROMD (MINAMIDAITOJIMA , JP) observed 0400 UTC 16 October 2021
Temperature: 28.0°C (82°F)
Dewpoint: 21.0°C (70°F) [RH = 66%]
Pressure (altimeter): 29.88 inches Hg (1012.0 mb)
Winds: from the ENE (70 degrees) at 7 MPH (6 knots; 3.1 m/s)
Visibility: 6 or more miles (10+ km)
Ceiling: at least 12,000 feet AGL
Clouds: sky clear below 12,000 feet AGL
Weather: no significant weather observed at this time

METAR text: ROMD 160300Z AUTO 06005KT 010V130 9999 NCD 29/22 Q1013
Conditions at: ROMD (MINAMIDAITOJIMA , JP) observed 0300 UTC 16 October 2021
Temperature: 29.0°C (84°F)
Dewpoint: 22.0°C (72°F) [RH = 66%]
Pressure (altimeter): 29.91 inches Hg (1013.0 mb)
Winds: from the ENE (60 degrees) at 6 MPH (5 knots; 2.6 m/s)
Visibility: 6 or more miles (10+ km)
Ceiling: at least 12,000 feet AGL
Clouds: sky clear below 12,000 feet AGL
Weather: no significant weather observed at this time

METAR text: ROMD 160200Z AUTO 07005KT 010V140 9999 NCD 29/23 Q1013
Conditions at: ROMD (MINAMIDAITOJIMA , JP) observed 0200 UTC 16 October 2021
Temperature: 29.0°C (84°F)
Dewpoint: 23.0°C (73°F) [RH = 70%]
Pressure (altimeter): 29.91 inches Hg (1013.0 mb)
Winds: from the ENE (70 degrees) at 6 MPH (5 knots; 2.6 m/s)
Visibility: 6 or more miles (10+ km)
Ceiling: at least 12,000 feet AGL
Clouds: sky clear below 12,000 feet AGL
Weather: no significant weather observed at this time

METAR text: ROMD 160100Z AUTO 07005KT 020V120 9999 NCD 28/22 Q1014
Conditions at: ROMD (MINAMIDAITOJIMA , JP) observed 0100 UTC 16 October 2021
Temperature: 28.0°C (82°F)
Dewpoint: 22.0°C (72°F) [RH = 70%]
Pressure (altimeter): 29.94 inches Hg (1014.0 mb)
Winds: from the ENE (70 degrees) at 6 MPH (5 knots; 2.6 m/s)
Visibility: 6 or more miles (10+ km)
Ceiling: at least 12,000 feet AGL
Clouds: sky clear below 12,000 feet AGL
Weather: no significant weather observed at this time

METAR text: ROMD 160000Z AUTO 06007KT 020V090 9999 NCD 28/22 Q1014
Conditions at: ROMD (MINAMIDAITOJIMA , JP) observed 0000 UTC 16 October 2021
Temperature: 28.0°C (82°F)
Dewpoint: 22.0°C (72°F) [RH = 70%]
Pressure (altimeter): 29.94 inches Hg (1014.0 mb)
Winds: from the ENE (60 degrees) at 8 MPH (7 knots; 3.6 m/s)
Visibility: 6 or more miles (10+ km)
Ceiling: at least 12,000 feet AGL
Clouds: sky clear below 12,000 feet AGL
Weather: no significant weather observed at this time

METAR text: ROMD 152300Z AUTO 06007KT 020V100 9999 FEW023 27/23 Q1013
Conditions at: ROMD (MINAMIDAITOJIMA , JP) observed 2300 UTC 15 October 2021
Temperature: 27.0°C (81°F)
Dewpoint: 23.0°C (73°F) [RH = 79%]
Pressure (altimeter): 29.91 inches Hg (1013.0 mb)
Winds: from the ENE (60 degrees) at 8 MPH (7 knots; 3.6 m/s)
Visibility: 6 or more miles (10+ km)
Ceiling: at least 12,000 feet AGL
Clouds: few clouds at 2300 feet AGL
Weather: no significant weather observed at this time

METAR text: ROMD 152200Z AUTO 05007KT 010V080 9999 FEW023 26/22 Q1013
Conditions at: ROMD (MINAMIDAITOJIMA , JP) observed 2200 UTC 15 October 2021
Temperature: 26.0°C (79°F)
Dewpoint: 22.0°C (72°F) [RH = 79%]
Pressure (altimeter): 29.91 inches Hg (1013.0 mb)
Winds: from the NE (50 degrees) at 8 MPH (7 knots; 3.6 m/s)
Visibility: 6 or more miles (10+ km)
Ceiling: at least 12,000 feet AGL
Clouds: few clouds at 2300 feet AGL
Weather: no significant weather observed at this time

METAR text: ROMD 152100Z AUTO 06006KT 030V110 9999 SCT021 26/22 Q1012
Conditions at: ROMD (MINAMIDAITOJIMA , JP) observed 2100 UTC 15 October 2021
Temperature: 26.0°C (79°F)
Dewpoint: 22.0°C (72°F) [RH = 79%]
Pressure (altimeter): 29.88 inches Hg (1012.0 mb)
Winds: from the ENE (60 degrees) at 7 MPH (6 knots; 3.1 m/s)
Visibility: 6 or more miles (10+ km)
Ceiling: at least 12,000 feet AGL
Clouds: scattered clouds at 2100 feet AGL
Weather: no significant weather observed at this time

METAR text: ROMD 152000Z AUTO 05007KT 9999 FEW020 26/22 Q1012
Conditions at: ROMD (MINAMIDAITOJIMA , JP) observed 2000 UTC 15 October 2021
Temperature: 26.0°C (79°F)
Dewpoint: 22.0°C (72°F) [RH = 79%]
Pressure (altimeter): 29.88 inches Hg (1012.0 mb)
Winds: from the NE (50 degrees) at 8 MPH (7 knots; 3.6 m/s)
Visibility: 6 or more miles (10+ km)
Ceiling: at least 12,000 feet AGL
Clouds: few clouds at 2000 feet AGL
Weather: no significant weather observed at this time

METAR text: ROMD 151900Z AUTO 06007KT 9999 FEW021 26/22 Q1012
Conditions at: ROMD (MINAMIDAITOJIMA , JP) observed 1900 UTC 15 October 2021
Temperature: 26.0°C (79°F)
Dewpoint: 22.0°C (72°F) [RH = 79%]
Pressure (altimeter): 29.88 inches Hg (1012.0 mb)
Winds: from the ENE (60 degrees) at 8 MPH (7 knots; 3.6 m/s)
Visibility: 6 or more miles (10+ km)
Ceiling: at least 12,000 feet AGL
Clouds: few clouds at 2100 feet AGL
Weather: no significant weather observed at this time

METAR text: ROMD 151800Z AUTO 06006KT 020V100 9999 FEW019 SCT021 26/23 Q1012
Conditions at: ROMD (MINAMIDAITOJIMA , JP) observed 1800 UTC 15 October 2021
Temperature: 26.0°C (79°F)
Dewpoint: 23.0°C (73°F) [RH = 84%]
Pressure (altimeter): 29.88 inches Hg (1012.0 mb)
Winds: from the ENE (60 degrees) at 7 MPH (6 knots; 3.1 m/s)
Visibility: 6 or more miles (10+ km)
Ceiling: at least 12,000 feet AGL
Clouds: few clouds at 1900 feet AGL
scattered clouds at 2100 feet AGL
Weather: no significant weather observed at this time

METAR text: ROMD 151700Z AUTO 05007KT 9999 FEW018 SCT019 BKN025 26/23 Q1012
Conditions at: ROMD (MINAMIDAITOJIMA , JP) observed 1700 UTC 15 October 2021
Temperature: 26.0°C (79°F)
Dewpoint: 23.0°C (73°F) [RH = 84%]
Pressure (altimeter): 29.88 inches Hg (1012.0 mb)
Winds: from the NE (50 degrees) at 8 MPH (7 knots; 3.6 m/s)
Visibility: 6 or more miles (10+ km)
Ceiling: 2500 feet AGL
Clouds: few clouds at 1800 feet AGL
scattered clouds at 1900 feet AGL
broken clouds at 2500 feet AGL
Weather: no significant weather observed at this time

METAR text: ROMD 151600Z AUTO 05008KT 9999 NSC 26/23 Q1013
Conditions at: ROMD (MINAMIDAITOJIMA , JP) observed 1600 UTC 15 October 2021
Temperature: 26.0°C (79°F)
Dewpoint: 23.0°C (73°F) [RH = 84%]
Pressure (altimeter): 29.91 inches Hg (1013.0 mb)
Winds: from the NE (50 degrees) at 9 MPH (8 knots; 4.1 m/s)
Visibility: 6 or more miles (10+ km)
Ceiling: at least 12,000 feet AGL
Clouds: sky clear below 12,000 feet AGL
Weather: no significant weather observed at this time

METAR text: ROMD 151500Z AUTO 04007KT 010V070 9999 FEW018 BKN090 26/24 Q1013
Conditions at: ROMD (MINAMIDAITOJIMA , JP) observed 1500 UTC 15 October 2021
Temperature: 26.0°C (79°F)
Dewpoint: 24.0°C (75°F) [RH = 89%]
Pressure (altimeter): 29.91 inches Hg (1013.0 mb)
Winds: from the NE (40 degrees) at 8 MPH (7 knots; 3.6 m/s)
Visibility: 6 or more miles (10+ km)
Ceiling: 9000 feet AGL
Clouds: few clouds at 1800 feet AGL
broken clouds at 9000 feet AGL
Weather: no significant weather observed at this time

METAR text: ROMD 151400Z AUTO 05008KT 9999 SCT019 SCT033 26/23 Q1013
Conditions at: ROMD (MINAMIDAITOJIMA , JP) observed 1400 UTC 15 October 2021
Temperature: 26.0°C (79°F)
Dewpoint: 23.0°C (73°F) [RH = 84%]
Pressure (altimeter): 29.91 inches Hg (1013.0 mb)
Winds: from the NE (50 degrees) at 9 MPH (8 knots; 4.1 m/s)
Visibility: 6 or more miles (10+ km)
Ceiling: at least 12,000 feet AGL
Clouds: scattered clouds at 1900 feet AGL
scattered clouds at 3300 feet AGL
Weather: no significant weather observed at this time

METAR text: ROMD 151300Z AUTO 04008KT 9999 SCT019 26/23 Q1013
Conditions at: ROMD (MINAMIDAITOJIMA , JP) observed 1300 UTC 15 October 2021
Temperature: 26.0°C (79°F)
Dewpoint: 23.0°C (73°F) [RH = 84%]
Pressure (altimeter): 29.91 inches Hg (1013.0 mb)
Winds: from the NE (40 degrees) at 9 MPH (8 knots; 4.1 m/s)
Visibility: 6 or more miles (10+ km)
Ceiling: at least 12,000 feet AGL
Clouds: scattered clouds at 1900 feet AGL
Weather: no significant weather observed at this time

METAR text: ROMD 151200Z AUTO 05008KT 9999 SCT018 26/24 Q1013
Conditions at: ROMD (MINAMIDAITOJIMA , JP) observed 1200 UTC 15 October 2021
Temperature: 26.0°C (79°F)
Dewpoint: 24.0°C (75°F) [RH = 89%]
Pressure (altimeter): 29.91 inches Hg (1013.0 mb)
Winds: from the NE (50 degrees) at 9 MPH (8 knots; 4.1 m/s)
Visibility: 6 or more miles (10+ km)
Ceiling: at least 12,000 feet AGL
Clouds: scattered clouds at 1800 feet AGL
Weather: no significant weather observed at this time

METAR text: ROMD 151100Z AUTO 05008KT 020V090 9999 FEW018 SCT050 BKN070 27/24 Q1012
Conditions at: ROMD (MINAMIDAITOJIMA , JP) observed 1100 UTC 15 October 2021
Temperature: 27.0°C (81°F)
Dewpoint: 24.0°C (75°F) [RH = 84%]
Pressure (altimeter): 29.88 inches Hg (1012.0 mb)
Winds: from the NE (50 degrees) at 9 MPH (8 knots; 4.1 m/s)
Visibility: 6 or more miles (10+ km)
Ceiling: 7000 feet AGL
Clouds: few clouds at 1800 feet AGL
scattered clouds at 5000 feet AGL
broken clouds at 7000 feet AGL
Weather: no significant weather observed at this time

METAR text: ROMD 151000Z AUTO 05008KT 9999 SCT018 27/23 Q1012
Conditions at: ROMD (MINAMIDAITOJIMA , JP) observed 1000 UTC 15 October 2021
Temperature: 27.0°C (81°F)
Dewpoint: 23.0°C (73°F) [RH = 79%]
Pressure (altimeter): 29.88 inches Hg (1012.0 mb)
Winds: from the NE (50 degrees) at 9 MPH (8 knots; 4.1 m/s)
Visibility: 6 or more miles (10+ km)
Ceiling: at least 12,000 feet AGL
Clouds: scattered clouds at 1800 feet AGL
Weather: no significant weather observed at this time

METAR text: ROMD 150900Z AUTO 05008KT 010V070 9999 SCT019 SCT048 27/24 Q1012
Conditions at: ROMD (MINAMIDAITOJIMA , JP) observed 0900 UTC 15 October 2021
Temperature: 27.0°C (81°F)
Dewpoint: 24.0°C (75°F) [RH = 84%]
Pressure (altimeter): 29.88 inches Hg (1012.0 mb)
Winds: from the NE (50 degrees) at 9 MPH (8 knots; 4.1 m/s)
Visibility: 6 or more miles (10+ km)
Ceiling: at least 12,000 feet AGL
Clouds: scattered clouds at 1900 feet AGL
scattered clouds at 4800 feet AGL
Weather: no significant weather observed at this time

METAR text: ROMD 150800Z AUTO 05008KT 9999 FEW021 27/23 Q1011
Conditions at: ROMD (MINAMIDAITOJIMA , JP) observed 0800 UTC 15 October 2021
Temperature: 27.0°C (81°F)
Dewpoint: 23.0°C (73°F) [RH = 79%]
Pressure (altimeter): 29.85 inches Hg (1011.0 mb)
Winds: from the NE (50 degrees) at 9 MPH (8 knots; 4.1 m/s)
Visibility: 6 or more miles (10+ km)
Ceiling: at least 12,000 feet AGL
Clouds: few clouds at 2100 feet AGL
Weather: no significant weather observed at this time